Time;durP1;ratioP1;P1;durP2;ratioP2;P2;SDS_P1;SDS_P2;PMS_P1;PMS_P2;Temp;Humidity;BMP_temperature;BMP_pressure;BME280_temperature;BME280_humidity;BME280_pressure;Samples;Min_cycle;Max_cycle;Signal;HPM_P1;HPM_P2
2022/08/28 00:00:09;;;;;;;11.40;2.67;;;;;;;20.71;85.69;100221.00;4917088;29;20477;-52
2022/08/28 00:02:35;;;;;;;3.73;3.33;;;;;;;20.67;85.77;100227.59;4916519;29;20449;-51
2022/08/28 00:05:02;;;;;;;2.50;2.30;;;;;;;20.64;85.99;100225.09;4916335;29;20481;-51
2022/08/28 00:07:29;;;;;;;22.23;2.67;;;;;;;20.73;85.91;100235.28;4916224;29;20527;-52
2022/08/28 00:09:55;;;;;;;3.40;2.70;;;;;;;20.70;85.74;100239.06;4916188;29;20487;-51
2022/08/28 00:12:22;;;;;;;2.17;2.07;;;;;;;20.66;85.81;100240.22;4916671;29;20628;-51
2022/08/28 00:14:48;;;;;;;2.17;1.97;;;;;;;20.59;86.19;100240.78;4916420;29;20468;-51
2022/08/28 00:17:15;;;;;;;11.90;2.20;;;;;;;20.59;86.43;100247.06;4916681;29;20459;-51
2022/08/28 00:19:41;;;;;;;11.73;2.90;;;;;;;20.58;86.44;100239.94;4916031;29;20508;-52
2022/08/28 00:22:08;;;;;;;3.40;3.20;;;;;;;20.52;86.46;100240.34;4916510;29;20461;-53
2022/08/28 00:24:35;;;;;;;2.80;1.60;;;;;;;20.57;86.32;100232.81;4916520;29;20453;-51
2022/08/28 00:29:47;;;;;;;9.40;1.90;;;;;;;20.50;86.81;100236.91;4916122;29;20477;-51
2022/08/28 00:32:13;;;;;;;3.67;3.23;;;;;;;20.49;86.77;100243.28;4916604;29;20457;-52
2022/08/28 00:34:40;;;;;;;8.83;2.23;;;;;;;20.59;86.48;100247.06;4915912;29;20854;-51
2022/08/28 00:37:06;;;;;;;6.50;1.77;;;;;;;20.47;87.17;100247.91;4909559;29;20453;-51
2022/08/28 00:39:33;;;;;;;2.83;2.10;;;;;;;20.43;87.15;100248.25;4916059;29;20473;-51
2022/08/28 00:42:00;;;;;;;1.73;1.50;;;;;;;20.50;86.94;100236.03;4916086;29;20927;-51
2022/08/28 00:44:27;;;;;;;1.63;1.53;;;;;;;20.56;86.62;100232.88;4915831;29;20464;-51
2022/08/28 00:46:56;;;;;;;2.70;2.50;;;;;;;20.45;86.85;100239.06;4916258;29;20496;-51
2022/08/28 00:49:26;;;;;;;4.97;2.33;;;;;;;20.57;86.35;100243.59;4916106;29;20481;-52
2022/08/28 00:52:14;;;;;;;2.20;2.00;;;;;;;20.57;86.48;100235.50;4916094;29;20453;-52
2022/08/28 00:54:47;;;;;;;2.53;2.00;;;;;;;20.40;86.99;100233.94;4916353;29;20527;-52
2022/08/28 00:57:39;;;;;;;8.73;2.37;;;;;;;20.48;86.98;100238.84;4916332;29;20484;-51
2022/08/28 01:00:09;;;;;;;2.40;1.30;;;;;;;20.55;86.51;100236.56;4914454;29;20547;-52
2022/08/28 01:02:36;;;;;;;2.53;1.90;;;;;;;20.49;86.78;100237.00;4915940;29;20487;-52
2022/08/28 01:05:08;;;;;;;1.70;1.30;;;;;;;20.55;86.59;100234.72;4915755;29;20465;-52
2022/08/28 01:07:36;;;;;;;2.77;2.57;;;;;;;20.51;86.66;100235.06;4915915;29;20499;-51
2022/08/28 01:10:06;;;;;;;3.23;1.80;;;;;;;20.49;86.74;100231.59;4915966;29;20862;-51
2022/08/28 01:12:33;;;;;;;2.50;2.40;;;;;;;20.45;86.69;100232.81;4918143;29;20449;-51
2022/08/28 01:15:08;;;;;;;5.70;2.33;;;;;;;20.51;86.44;100237.75;4916068;29;20469;-52
2022/08/28 01:17:35;;;;;;;2.23;2.03;;;;;;;20.52;86.47;100244.88;4916017;29;20452;-51
2022/08/28 01:20:10;;;;;;;2.83;2.63;;;;;;;20.58;86.13;100247.16;4919619;29;20528;-51
2022/08/28 01:22:43;;;;;;;1.70;1.60;;;;;;;20.51;86.46;100240.47;4919885;29;20449;-52
2022/08/28 01:25:12;;;;;;;2.83;2.57;;;;;;;20.54;86.18;100248.34;4919811;29;20882;-51
2022/08/28 01:27:40;;;;;;;2.67;2.23;;;;;;;20.54;86.18;100253.75;4918135;29;20492;-51
2022/08/28 01:30:11;;;;;;;1.97;1.87;;;;;;;20.49;86.41;100248.66;4908826;29;20517;-51
2022/08/28 01:32:42;;;;;;;2.67;2.47;;;;;;;20.46;86.81;100250.72;4920421;29;20465;-52
2022/08/28 01:35:17;;;;;;;9.30;2.60;;;;;;;20.48;86.54;100243.38;4919773;29;20459;-52
2022/08/28 01:37:44;;;;;;;1.83;1.70;;;;;;;20.65;85.68;100248.44;4919349;29;20951;-51
2022/08/28 01:40:16;;;;;;;7.03;2.77;;;;;;;20.79;85.18;100245.63;4919543;29;20486;-51
2022/08/28 01:42:43;;;;;;;4.90;3.03;;;;;;;20.88;84.58;100252.22;4919083;29;20465;-52
2022/08/28 01:45:13;;;;;;;2.83;2.57;;;;;;;21.01;83.86;100247.66;4919337;29;20959;-52
2022/08/28 01:47:42;;;;;;;5.80;2.93;;;;;;;20.84;84.53;100248.88;4919182;29;20634;-51
2022/08/28 01:50:13;;;;;;;4.77;2.30;;;;;;;20.95;84.05;100253.50;4919419;29;20487;-52
2022/08/28 01:52:40;;;;;;;1.90;1.80;;;;;;;21.02;83.76;100248.53;4919188;29;20541;-51
2022/08/28 01:55:09;;;;;;;2.77;2.57;;;;;;;21.08;83.62;100243.50;4913930;29;20502;-51
2022/08/28 01:57:43;;;;;;;2.30;2.10;;;;;;;20.97;83.95;100247.03;4918818;29;20453;-51
2022/08/28 02:00:11;;;;;;;14.30;1.83;;;;;;;20.94;84.05;100236.41;4918973;29;20472;-52
2022/08/28 02:02:38;;;;;;;6.10;2.60;;;;;;;21.07;83.48;100240.94;4919251;29;20431;-52
2022/08/28 02:05:07;;;;;;;3.23;1.97;;;;;;;21.10;83.19;100238.84;4918923;29;20445;-52
2022/08/28 02:07:34;;;;;;;6.00;2.93;;;;;;;21.20;83.13;100237.22;4918980;29;20961;-52
2022/08/28 02:10:01;;;;;;;2.40;2.30;;;;;;;21.06;83.60;100242.75;4918266;29;20480;-51
2022/08/28 02:12:28;;;;;;;8.10;1.80;;;;;;;20.86;84.31;100241.53;4921261;29;20457;-52
2022/08/28 02:14:55;;;;;;;2.20;2.10;;;;;;;20.90;84.34;100243.03;4918945;29;20428;-53
2022/08/28 02:17:21;;;;;;;1.83;1.73;;;;;;;20.84;84.43;100242.63;4918691;29;20464;-51
2022/08/28 02:19:48;;;;;;;7.63;1.63;;;;;;;20.70;84.69;100238.19;4918647;29;20477;-51
2022/08/28 02:22:14;;;;;;;2.17;2.07;;;;;;;20.60;85.32;100239.81;4918622;29;20463;-51
2022/08/28 02:24:41;;;;;;;8.93;1.77;;;;;;;20.48;85.84;100248.78;4918489;29;20483;-51
2022/08/28 02:27:07;;;;;;;2.10;2.00;;;;;;;20.48;86.10;100251.47;4918849;29;20496;-51
2022/08/28 02:29:34;;;;;;;2.23;2.13;;;;;;;20.39;86.36;100243.00;4917809;29;20485;-51
2022/08/28 02:32:00;;;;;;;2.17;1.60;;;;;;;20.47;86.16;100249.75;4918514;29;20457;-51
2022/08/28 02:34:27;;;;;;;2.30;2.13;;;;;;;20.68;85.27;100240.97;4918530;29;20483;-52
2022/08/28 02:36:55;;;;;;;13.03;2.00;;;;;;;20.51;85.60;100244.03;4918628;29;20454;-52
2022/08/28 02:39:21;;;;;;;1.87;1.77;;;;;;;20.48;85.75;100246.09;4918290;29;20469;-51
2022/08/28 02:41:47;;;;;;;2.50;2.40;;;;;;;20.37;86.24;100244.09;4918695;29;20465;-52
2022/08/28 02:44:14;;;;;;;17.37;1.80;;;;;;;20.36;86.13;100250.47;4918139;29;20461;-51
2022/08/28 02:46:40;;;;;;;1.70;1.60;;;;;;;20.29;86.78;100244.66;4918262;29;20827;-51
2022/08/28 02:49:07;;;;;;;2.20;2.00;;;;;;;20.33;86.41;100240.75;4918193;29;20477;-52
2022/08/28 02:51:34;;;;;;;2.03;1.93;;;;;;;20.30;86.39;100235.56;4917892;29;20820;-51
2022/08/28 02:54:01;;;;;;;2.77;2.60;;;;;;;20.22;86.78;100239.75;4918251;29;20450;-52
2022/08/28 02:56:28;;;;;;;2.07;1.97;;;;;;;20.18;87.16;100231.03;4918302;29;20457;-51
2022/08/28 02:58:54;;;;;;;2.03;1.93;;;;;;;20.18;87.05;100236.41;4918013;29;20513;-52
2022/08/28 03:01:22;;;;;;;2.70;2.50;;;;;;;20.13;87.34;100234.03;4918101;29;20457;-52
2022/08/28 03:03:49;;;;;;;1.80;1.70;;;;;;;20.14;87.16;100232.19;4917637;29;20974;-52
2022/08/28 03:06:15;;;;;;;2.77;2.13;;;;;;;20.07;87.37;100241.69;4917653;29;20461;-52
2022/08/28 03:08:43;;;;;;;1.90;1.70;;;;;;;20.06;87.60;100239.97;4917973;29;20501;-51
2022/08/28 03:11:10;;;;;;;1.67;1.43;;;;;;;20.31;86.50;100239.13;4917982;29;20453;-53
2022/08/28 03:13:37;;;;;;;1.93;1.83;;;;;;;20.46;86.13;100230.00;4917747;29;20832;-52
2022/08/28 03:16:04;;;;;;;9.70;1.53;;;;;;;20.46;85.67;100234.53;4917887;29;20453;-52
2022/08/28 03:18:31;;;;;;;6.10;2.20;;;;;;;20.31;86.01;100231.91;4905257;29;20479;-52
2022/08/28 03:20:59;;;;;;;3.00;2.67;;;;;;;20.26;86.30;100239.44;4917690;29;20449;-51
2022/08/28 03:23:25;;;;;;;1.70;1.60;;;;;;;20.32;86.42;100239.03;4917780;29;20453;-52
2022/08/28 03:25:56;;;;;;;2.63;2.37;;;;;;;20.40;86.07;100235.78;4917764;29;20496;-52
2022/08/28 03:28:24;;;;;;;10.27;1.80;;;;;;;20.48;85.81;100238.84;4917521;29;20563;-52
2022/08/28 03:30:51;;;;;;;2.10;2.00;;;;;;;20.35;86.06;100236.09;4917473;29;20844;-52
2022/08/28 03:33:18;;;;;;;1.43;1.33;;;;;;;20.35;86.29;100230.69;4915933;29;20446;-52
2022/08/28 03:35:44;;;;;;;1.60;1.50;;;;;;;20.25;87.05;100228.75;4917550;29;20460;-52
2022/08/28 03:38:11;;;;;;;2.60;2.40;;;;;;;20.21;86.84;100228.09;4917393;29;20946;-52
2022/08/28 03:40:41;;;;;;;2.37;2.17;;;;;;;19.97;87.71;100227.09;4917254;29;20477;-52
2022/08/28 03:43:10;;;;;;;9.50;2.67;;;;;;;19.97;87.84;100227.09;4917387;29;20517;-52
2022/08/28 03:45:37;;;;;;;2.33;2.13;;;;;;;20.10;86.74;100220.75;4917018;29;20877;-52
2022/08/28 03:48:03;;;;;;;1.30;1.20;;;;;;;20.14;87.05;100232.19;4916964;29;20858;-51
2022/08/28 03:50:30;;;;;;;4.87;1.90;;;;;;;20.07;86.59;100228.19;4917269;29;20477;-51
2022/08/28 03:52:58;;;;;;;12.80;2.30;;;;;;;20.11;86.72;100227.00;4917268;29;20831;-52
2022/08/28 03:55:25;;;;;;;1.43;1.33;;;;;;;20.08;86.92;100235.31;4916764;29;20454;-52
2022/08/28 03:57:51;;;;;;;2.60;2.40;;;;;;;20.10;86.70;100236.94;4916955;29;20978;-52
2022/08/28 04:00:19;;;;;;;4.10;1.97;;;;;;;20.35;85.64;100237.94;4916787;29;20485;-52
2022/08/28 04:02:45;;;;;;;4.60;1.43;;;;;;;20.00;87.20;100238.53;4916913;29;20461;-52
2022/08/28 04:05:12;;;;;;;1.93;1.10;;;;;;;19.92;86.92;100231.94;4916950;29;20449;-52
2022/08/28 04:07:40;;;;;;;1.93;1.47;;;;;;;19.88;87.44;100236.69;4916828;29;21033;-51
2022/08/28 04:10:07;;;;;;;10.20;2.40;;;;;;;20.06;86.92;100239.97;4916711;29;20477;-52
2022/08/28 04:12:35;;;;;;;2.47;1.80;;;;;;;20.14;86.33;100245.69;4918711;29;20457;-52
2022/08/28 04:15:03;;;;;;;5.17;2.13;;;;;;;20.18;86.12;100236.41;4916275;29;20520;-52
2022/08/28 04:17:32;;;;;;;1.73;1.63;;;;;;;19.99;86.82;100235.94;4916721;29;20908;-52
2022/08/28 04:19:58;;;;;;;1.70;1.60;;;;;;;19.74;87.92;100243.03;4916674;29;20488;-52
2022/08/28 04:22:25;;;;;;;1.93;1.83;;;;;;;19.79;87.99;100246.25;4916920;29;20459;-52
2022/08/28 04:24:53;;;;;;;1.73;1.63;;;;;;;19.83;87.56;100249.63;4916261;29;20476;-52
2022/08/28 04:27:19;;;;;;;5.30;2.17;;;;;;;19.96;87.31;100249.66;4916430;29;20504;-52
2022/08/28 04:29:47;;;;;;;2.30;1.70;;;;;;;19.86;87.42;100254.78;4916142;29;20537;-51
2022/08/28 04:32:14;;;;;;;11.90;1.50;;;;;;;19.75;87.79;100255.53;4916468;29;20464;-52
2022/08/28 04:34:41;;;;;;;12.07;2.63;;;;;;;19.66;88.52;100261.53;4916479;29;20457;-51
2022/08/28 04:37:07;;;;;;;1.20;1.10;;;;;;;19.54;88.77;100262.31;4916356;29;20453;-51
2022/08/28 04:39:34;;;;;;;1.57;1.47;;;;;;;19.45;88.78;100266.47;4916293;29;20577;-51
2022/08/28 04:42:00;;;;;;;1.90;1.03;;;;;;;19.58;88.20;100268.41;4915914;29;20457;-51
2022/08/28 04:44:27;;;;;;;6.53;1.70;;;;;;;19.56;88.13;100264.94;4915923;29;20455;-51
2022/08/28 04:46:53;;;;;;;1.20;1.10;;;;;;;19.56;88.21;100264.94;4915959;29;20469;-51
2022/08/28 04:49:21;;;;;;;2.70;2.20;;;;;;;19.57;87.97;100274.75;4916034;29;20995;-52
2022/08/28 04:51:51;;;;;;;4.70;1.20;;;;;;;19.65;87.79;100272.44;4916096;29;20986;-51
2022/08/28 04:54:17;;;;;;;3.60;2.00;;;;;;;19.65;87.77;100277.81;4915827;29;20464;-51
2022/08/28 04:56:45;;;;;;;1.80;1.30;;;;;;;19.87;86.85;100272.72;4915736;29;20461;-52
2022/08/28 04:59:11;;;;;;;1.57;1.43;;;;;;;19.86;86.86;100276.38;4915978;29;20485;-51
2022/08/28 05:01:40;;;;;;;1.07;0.97;;;;;;;19.77;86.64;100277.88;4915818;29;20461;-52
2022/08/28 05:04:08;;;;;;;8.63;1.90;;;;;;;19.79;86.75;100275.94;4915689;29;20457;-51
2022/08/28 05:06:34;;;;;;;1.40;1.30;;;;;;;19.99;86.23;100282.69;4915035;29;20476;-52
2022/08/28 05:09:03;;;;;;;7.30;0.70;;;;;;;19.81;86.24;100281.22;4915151;29;20492;-51
2022/08/28 05:11:30;;;;;;;5.63;1.40;;;;;;;19.80;86.55;100277.66;4917922;29;20453;-52
2022/08/28 05:14:03;;;;;;;1.50;1.03;;;;;;;20.06;85.75;100283.16;4916122;29;20455;-52
2022/08/28 05:16:29;;;;;;;1.53;1.43;;;;;;;19.92;86.17;100277.81;4915870;29;20449;-52
2022/08/28 05:18:59;;;;;;;1.20;1.10;;;;;;;19.95;86.28;100283.88;4916050;29;20902;-52
2022/08/28 05:21:27;;;;;;;8.20;1.23;;;;;;;19.94;85.93;100286.66;4915559;29;20450;-51
2022/08/28 05:23:56;;;;;;;1.97;1.20;;;;;;;19.87;86.44;100285.34;4914679;29;20524;-52
2022/08/28 05:26:23;;;;;;;4.07;1.00;;;;;;;19.97;85.96;100297.25;4915856;29;20452;-52
2022/08/28 05:28:54;;;;;;;8.63;1.30;;;;;;;19.95;85.81;100294.66;4914198;29;21102;-51
2022/08/28 05:31:22;;;;;;;7.47;1.77;;;;;;;19.92;85.72;100299.41;4914580;29;20460;-52
2022/08/28 05:33:50;;;;;;;1.50;1.17;;;;;;;19.89;86.20;100308.56;4915833;29;20453;-52
2022/08/28 05:36:20;;;;;;;0.90;0.90;;;;;;;19.97;85.98;100314.31;4915685;29;20460;-52
2022/08/28 05:38:48;;;;;;;3.70;1.60;;;;;;;19.93;85.50;100312.78;4915700;29;21013;-51
2022/08/28 05:41:19;;;;;;;1.30;0.90;;;;;;;20.02;85.33;100316.72;4912297;29;20445;-52
2022/08/28 05:43:46;;;;;;;1.30;0.80;;;;;;;20.20;85.01;100323.56;4914261;29;20449;-52
2022/08/28 05:46:14;;;;;;;25.43;2.20;;;;;;;20.04;85.36;100320.16;4915850;29;20460;-52
2022/08/28 05:48:41;;;;;;;1.10;0.90;;;;;;;19.95;85.15;100315.38;4915052;29;20593;-52
2022/08/28 05:51:14;;;;;;;1.87;1.30;;;;;;;20.06;84.94;100319.09;4915142;29;20457;-52
2022/08/28 05:53:42;;;;;;;6.97;1.60;;;;;;;20.16;84.22;100322.03;4915157;29;20962;-52
2022/08/28 05:56:12;;;;;;;5.10;1.70;;;;;;;20.30;83.76;100319.28;4915620;29;20461;-52
2022/08/28 05:58:39;;;;;;;10.17;1.30;;;;;;;20.34;83.38;100322.63;4915529;29;20473;-52
2022/08/28 06:01:10;;;;;;;3.73;1.73;;;;;;;20.21;83.68;100322.59;4915466;29;20484;-52
2022/08/28 06:03:38;;;;;;;3.47;1.20;;;;;;;20.46;82.89;100315.53;4915645;29;20457;-51
2022/08/28 06:06:06;;;;;;;6.23;1.30;;;;;;;20.23;83.28;100319.78;4917983;29;20460;-51
2022/08/28 06:08:33;;;;;;;3.77;1.37;;;;;;;20.38;82.58;100324.13;4918837;29;21022;-52
2022/08/28 06:11:01;;;;;;;5.93;1.80;;;;;;;20.41;82.76;100324.81;4919039;29;20460;-52
2022/08/28 06:13:29;;;;;;;2.23;1.60;;;;;;;20.52;82.33;100325.91;4919413;29;20467;-53
2022/08/28 06:15:56;;;;;;;1.93;1.70;;;;;;;20.70;82.07;100327.34;4918523;29;20513;-53
2022/08/28 06:18:24;;;;;;;6.10;1.30;;;;;;;20.77;81.37;100328.63;4918910;29;20803;-52
2022/08/28 06:20:52;;;;;;;2.40;1.20;;;;;;;20.36;82.10;100329.63;4918725;29;20461;-52
2022/08/28 06:23:21;;;;;;;4.47;0.90;;;;;;;20.48;81.98;100329.81;4918104;29;20456;-52
2022/08/28 06:25:50;;;;;;;1.43;1.33;;;;;;;20.50;81.37;100330.56;4918202;29;20457;-52
2022/08/28 06:28:21;;;;;;;2.80;0.90;;;;;;;20.55;81.28;100331.94;4918371;29;21006;-51
2022/08/28 06:30:49;;;;;;;1.00;0.73;;;;;;;20.75;80.59;100335.97;4918488;29;20461;-52
2022/08/28 06:33:36;;;;;;;4.53;1.30;;;;;;;20.70;80.25;100339.03;4918280;29;20868;-52
2022/08/28 06:36:04;;;;;;;10.13;1.63;;;;;;;20.66;80.79;100339.31;4918389;29;20464;-52
2022/08/28 06:38:30;;;;;;;4.63;0.77;;;;;;;20.76;80.14;100332.31;4918541;29;20424;-53
2022/08/28 06:40:57;;;;;;;1.20;1.10;;;;;;;20.74;80.10;100342.38;4917752;29;20461;-53
2022/08/28 06:43:27;;;;;;;10.73;1.20;;;;;;;20.69;80.12;100339.97;4917743;29;20461;-53
2022/08/28 06:45:55;;;;;;;1.63;1.17;;;;;;;20.82;79.61;100348.06;4918186;29;20463;-52
2022/08/28 06:48:26;;;;;;;3.93;1.23;;;;;;;20.65;79.92;100338.47;4918129;29;21101;-51
2022/08/28 06:50:53;;;;;;;2.20;1.13;;;;;;;20.74;79.93;100336.97;4918032;29;20467;-52
2022/08/28 06:53:22;;;;;;;2.87;1.00;;;;;;;20.72;79.85;100344.31;4917811;29;20540;-52
2022/08/28 06:55:56;;;;;;;7.43;1.30;;;;;;;20.73;79.90;100342.47;4910494;29;20464;-52
2022/08/28 06:58:23;;;;;;;0.77;0.70;;;;;;;20.80;79.97;100347.31;4916827;29;20449;-52
2022/08/28 07:00:49;;;;;;;5.60;1.50;;;;;;;20.94;79.36;100344.50;4918177;29;20461;-52
2022/08/28 07:03:28;;;;;;;1.17;1.07;;;;;;;20.89;79.27;100353.94;4917557;29;20500;-52
2022/08/28 07:06:00;;;;;;;3.93;1.47;;;;;;;20.83;79.45;100360.66;4917857;29;20827;-52
2022/08/28 07:08:28;;;;;;;2.07;0.73;;;;;;;20.71;79.66;100358.78;4918081;29;20493;-52
2022/08/28 07:10:55;;;;;;;4.93;1.17;;;;;;;20.89;79.15;100353.94;4918125;29;20457;-52
2022/08/28 07:13:22;;;;;;;4.17;2.07;;;;;;;20.96;78.55;100357.91;4918699;29;20465;-52
2022/08/28 07:15:48;;;;;;;17.77;1.10;;;;;;;21.06;78.39;100364.41;4916918;29;20456;-52
2022/08/28 07:18:16;;;;;;;0.60;0.50;;;;;;;20.92;78.46;100370.78;4917160;29;20510;-51
2022/08/28 07:20:43;;;;;;;1.50;1.10;;;;;;;21.05;78.32;100368.09;4917567;29;20986;-53
2022/08/28 07:23:10;;;;;;;21.73;1.93;;;;;;;21.03;78.45;100369.19;4917373;29;20460;-52
2022/08/28 07:25:40;;;;;;;0.97;0.90;;;;;;;21.20;77.66;100374.25;4920857;29;20465;-52
2022/08/28 07:28:07;;;;;;;1.43;1.27;;;;;;;21.26;77.35;100371.16;4916231;29;20499;-51
2022/08/28 07:30:34;;;;;;;20.77;1.10;;;;;;;21.29;76.56;100371.78;4917022;29;20548;-53
2022/08/28 07:33:01;;;;;;;4.00;1.53;;;;;;;21.23;77.21;100374.88;4917996;29;20461;-52
2022/08/28 07:35:27;;;;;;;13.93;1.53;;;;;;;21.22;76.81;100380.41;4917718;29;20444;-52
2022/08/28 07:37:54;;;;;;;3.60;1.20;;;;;;;21.46;76.21;100375.97;4917623;29;20591;-53
2022/08/28 07:40:21;;;;;;;1.87;1.37;;;;;;;21.58;75.68;100366.97;4917509;29;20634;-53
2022/08/28 07:45:34;;;;;;;1.63;1.53;;;;;;;21.89;74.01;100375.53;4916594;29;21030;-52
2022/08/28 07:48:07;;;;;;;3.67;1.30;;;;;;;22.06;73.73;100377.88;4917191;29;20480;-53
2022/08/28 07:50:36;;;;;;;0.97;0.80;;;;;;;22.09;73.63;100374.09;4917007;29;20469;-53
2022/08/28 07:53:06;;;;;;;2.80;1.47;;;;;;;21.85;73.59;100376.75;4917142;29;20453;-52
2022/08/28 07:55:33;;;;;;;7.67;0.90;;;;;;;22.10;74.00;100375.81;4916972;29;20460;-52
2022/08/28 07:58:01;;;;;;;1.30;0.90;;;;;;;22.10;72.94;100381.22;4917385;29;20436;-53
2022/08/28 08:00:27;;;;;;;3.23;1.73;;;;;;;22.09;72.63;100387.63;4916920;29;20473;-53
2022/08/28 08:02:53;;;;;;;14.93;1.60;;;;;;;22.08;73.21;100386.75;4916933;29;20459;-52
2022/08/28 08:05:20;;;;;;;1.57;1.47;;;;;;;22.12;73.37;100380.13;4916828;29;20457;-53
2022/08/28 08:07:47;;;;;;;4.30;1.33;;;;;;;21.96;73.73;100384.06;4917152;29;20467;-53
2022/08/28 08:10:13;;;;;;;4.60;1.40;;;;;;;22.09;73.18;100385.78;4916581;29;20475;-52
2022/08/28 08:12:45;;;;;;;4.43;1.20;;;;;;;22.05;72.62;100384.25;4919043;29;20454;-53
2022/08/28 08:15:12;;;;;;;0.97;0.97;;;;;;;22.08;73.91;100392.19;4921667;29;20495;-53
2022/08/28 08:17:39;;;;;;;0.80;0.60;;;;;;;22.26;73.06;100389.94;4932183;29;20976;-52
2022/08/28 08:20:07;;;;;;;0.80;0.77;;;;;;;22.66;71.71;100393.16;4904315;29;20480;-52
2022/08/28 08:22:34;;;;;;;1.30;1.20;;;;;;;22.63;71.46;100400.69;4918834;29;20939;-53
2022/08/28 08:25:03;;;;;;;29.93;1.53;;;;;;;22.63;71.26;100398.81;4916443;29;20824;-52
2022/08/28 08:27:34;;;;;;;1.30;1.20;;;;;;;22.37;72.24;100392.69;4916192;29;20453;-52
2022/08/28 08:30:07;;;;;;;4.10;1.23;;;;;;;22.44;71.99;100401.19;4916418;29;20483;-52
2022/08/28 08:32:33;;;;;;;5.97;1.43;;;;;;;22.19;72.49;100399.47;4916408;29;20472;-52
2022/08/28 08:34:59;;;;;;;3.83;1.40;;;;;;;22.00;72.76;100397.25;4924720;29;20424;-52
2022/08/28 08:37:26;;;;;;;0.90;0.77;;;;;;;22.00;73.32;100394.56;4916106;29;20457;-52
2022/08/28 08:39:53;;;;;;;3.70;1.10;;;;;;;22.24;72.31;100393.75;4916209;29;21026;-53
2022/08/28 08:42:24;;;;;;;1.50;1.10;;;;;;;22.25;71.83;100393.63;4916843;29;20461;-52
2022/08/28 08:44:54;;;;;;;1.60;1.00;;;;;;;22.18;72.32;100401.31;4916382;29;20457;-52
2022/08/28 08:47:29;;;;;;;5.13;1.10;;;;;;;22.15;72.06;100400.69;4916285;29;20432;-52
2022/08/28 08:49:59;;;;;;;1.83;1.33;;;;;;;22.20;72.17;100395.78;4915065;29;20998;-52
2022/08/28 08:52:50;;;;;;;1.93;1.40;;;;;;;22.72;70.86;100402.66;4915567;29;20967;-53
2022/08/28 08:55:27;;;;;;;1.10;1.00;;;;;;;22.61;69.83;100402.59;4915973;29;20457;-52
2022/08/28 08:58:02;;;;;;;4.43;2.17;;;;;;;22.78;69.54;100404.91;4915849;29;20435;-53
2022/08/28 09:00:35;;;;;;;1.23;1.13;;;;;;;22.51;69.83;100398.91;4915835;29;20469;-53
2022/08/28 09:03:22;;;;;;;5.57;1.00;;;;;;;22.66;69.92;100406.72;4916029;29;20452;-52
2022/08/28 09:06:00;;;;;;;2.00;1.27;;;;;;;22.73;69.48;100398.97;4906905;29;20847;-53
2022/08/28 09:08:39;;;;;;;0.97;0.97;;;;;;;22.54;69.63;100402.22;4907501;29;20523;-52
2022/08/28 09:11:28;;;;;;;2.60;1.27;;;;;;;22.74;69.16;100411.53;4917510;29;20453;-52
2022/08/28 09:14:08;;;;;;;3.17;1.53;;;;;;;22.83;68.24;100412.69;4905671;29;20939;-53
2022/08/28 09:16:38;;;;;;;5.63;1.37;;;;;;;22.83;68.35;100418.13;4915995;29;20449;-52
2022/08/28 09:19:08;;;;;;;1.80;1.43;;;;;;;23.01;67.78;100411.25;4915920;29;20465;-52
2022/08/28 09:21:40;;;;;;;3.87;1.00;;;;;;;23.45;66.70;100417.75;4918098;29;20516;-53
2022/08/28 09:24:20;;;;;;;2.37;1.23;;;;;;;23.50;66.13;100412.81;4916277;29;20434;-52
2022/08/28 09:26:59;;;;;;;4.60;1.13;;;;;;;23.82;64.78;100413.78;4904880;29;20445;-52
2022/08/28 09:29:30;;;;;;;1.83;1.00;;;;;;;23.51;65.29;100412.69;4915613;29;20482;-53
2022/08/28 09:31:57;;;;;;;3.97;1.40;;;;;;;23.52;65.58;100413.53;4915975;29;20490;-52
2022/08/28 09:34:32;;;;;;;10.33;1.27;;;;;;;23.62;64.15;100420.00;4915923;29;20806;-52
2022/08/28 09:37:07;;;;;;;3.53;1.33;;;;;;;23.56;63.66;100425.88;4915779;29;20434;-53
2022/08/28 09:39:36;;;;;;;2.80;1.40;;;;;;;23.57;62.82;100411.31;4904764;29;20821;-53
2022/08/28 09:45:19;;;;;;;2.30;0.93;;;;;;;23.87;61.25;100416.16;4920331;29;20509;-53
2022/08/28 09:47:59;;;;;;;1.00;0.90;;;;;;;24.01;61.39;100412.28;4907627;29;20423;-52
2022/08/28 09:50:37;;;;;;;4.83;1.17;;;;;;;24.27;60.99;100421.88;4917802;29;20519;-52
2022/08/28 09:53:12;;;;;;;1.20;1.10;;;;;;;24.23;60.51;100414.94;4919640;29;20482;-53
2022/08/28 09:56:01;;;;;;;2.13;0.63;;;;;;;24.26;59.94;100417.41;4919691;29;20479;-54
2022/08/28 09:58:40;;;;;;;2.13;1.13;;;;;;;24.61;59.76;100408.16;4919163;29;20427;-53
2022/08/28 10:01:30;;;;;;;2.57;1.03;;;;;;;24.84;59.39;100409.78;4919518;29;20914;-52
2022/08/28 10:04:21;;;;;;;5.77;1.40;;;;;;;24.74;58.90;100415.13;4934069;29;20505;-52
2022/08/28 10:06:59;;;;;;;0.87;0.80;;;;;;;24.65;59.53;100406.91;4919374;29;20480;-52
2022/08/28 10:10:19;;;;;;;2.60;1.23;;;;;;;24.77;58.99;100400.41;4919464;29;20507;-52
2022/08/28 10:12:52;;;;;;;7.00;1.47;;;;;;;24.74;58.69;100397.97;4895981;29;20471;-51
2022/08/28 10:15:29;;;;;;;3.47;0.97;;;;;;;24.95;58.66;100395.25;4918712;29;20427;-51
2022/08/28 10:18:04;;;;;;;1.10;0.80;;;;;;;25.12;56.81;100396.53;4919499;29;20431;-52
2022/08/28 10:20:35;;;;;;;19.47;1.87;;;;;;;24.66;58.12;100393.16;4919140;29;20443;-52
2022/08/28 10:23:26;;;;;;;2.70;1.23;;;;;;;24.74;57.57;100393.38;4919032;29;20434;-52
2022/08/28 10:26:02;;;;;;;0.80;0.80;;;;;;;24.54;57.99;100396.09;4918757;29;20457;-52
2022/08/28 10:28:57;;;;;;;0.80;0.77;;;;;;;24.64;58.24;100391.59;4918867;29;20868;-52
2022/08/28 10:31:33;;;;;;;0.80;0.80;;;;;;;24.69;58.23;100400.22;4918978;29;20793;-52
2022/08/28 10:34:13;;;;;;;1.00;0.90;;;;;;;24.66;58.84;100398.59;4918530;29;20453;-53
2022/08/28 10:36:43;;;;;;;1.20;1.10;;;;;;;24.89;58.22;100398.50;4918750;29;20458;-53
2022/08/28 10:39:37;;;;;;;8.90;1.27;;;;;;;24.78;58.44;100393.97;4918593;29;20473;-52
2022/08/28 10:42:05;;;;;;;1.20;1.10;;;;;;;24.74;57.95;100392.53;4918471;29;20814;-52
2022/08/28 10:44:49;;;;;;;9.50;0.93;;;;;;;24.97;57.03;100387.81;4918502;29;20461;-53
2022/08/28 10:47:20;;;;;;;1.73;0.80;;;;;;;25.02;55.31;100394.59;4918306;29;20816;-52
2022/08/28 10:49:52;;;;;;;1.00;0.93;;;;;;;24.86;54.91;100390.59;4918276;29;21054;-53
2022/08/28 10:52:31;;;;;;;6.50;1.07;;;;;;;25.28;53.94;100388.75;4917934;29;20468;-52
2022/08/28 10:55:06;;;;;;;2.73;0.90;;;;;;;25.51;53.41;100389.44;4918362;29;20805;-52
2022/08/28 10:57:35;;;;;;;1.67;0.90;;;;;;;25.63;53.24;100389.19;4918337;29;20427;-52
2022/08/28 11:00:15;;;;;;;0.87;0.67;;;;;;;25.51;53.53;100392.16;4918279;29;20444;-52
2022/08/28 11:02:48;;;;;;;2.80;0.87;;;;;;;25.20;54.65;100391.25;4918201;29;20434;-52
2022/08/28 11:05:20;;;;;;;1.17;0.63;;;;;;;25.43;54.32;100392.81;4917994;29;20445;-52
2022/08/28 11:07:50;;;;;;;4.00;1.07;;;;;;;25.56;53.64;100392.59;4918380;29;20532;-51
2022/08/28 11:10:43;;;;;;;1.47;1.13;;;;;;;25.50;53.91;100390.44;4918014;29;20500;-51
2022/08/28 11:13:10;;;;;;;11.00;1.30;;;;;;;25.35;54.50;100392.63;4920258;29;20459;-52
2022/08/28 11:15:40;;;;;;;8.43;1.60;;;;;;;25.71;53.29;100385.78;4917795;29;20465;-51
2022/08/28 11:18:13;;;;;;;8.23;1.07;;;;;;;25.79;52.73;100385.13;4918170;29;20768;-49
2022/08/28 11:20:42;;;;;;;5.77;1.43;;;;;;;26.14;51.32;100377.28;4917656;29;20469;-50
2022/08/28 11:23:15;;;;;;;34.10;1.07;;;;;;;25.71;51.66;100393.09;4917707;29;20530;-50
2022/08/28 11:25:53;;;;;;;1.83;1.33;;;;;;;25.29;52.87;100382.31;4917665;29;20423;-50
2022/08/28 11:28:22;;;;;;;1.50;1.30;;;;;;;25.79;51.47;100371.50;4917454;29;20434;-51
2022/08/28 11:31:04;;;;;;;5.33;1.77;;;;;;;25.75;51.23;100381.78;4917328;29;20520;-50
2022/08/28 11:33:40;;;;;;;1.17;1.07;;;;;;;25.66;52.40;100383.47;4917575;29;20431;-50
2022/08/28 11:36:18;;;;;;;1.30;1.10;;;;;;;25.89;51.70;100372.34;4917296;29;20943;-50
2022/08/28 11:38:45;;;;;;;4.40;1.60;;;;;;;25.62;52.04;100384.72;4917243;29;20477;-50
2022/08/28 11:41:25;;;;;;;1.20;1.10;;;;;;;25.64;52.05;100381.88;4905348;29;20453;-50
2022/08/28 11:44:06;;;;;;;1.73;0.90;;;;;;;26.08;51.50;100372.41;4917285;29;20432;-50
2022/08/28 11:46:35;;;;;;;1.50;0.70;;;;;;;25.59;51.89;100381.41;4917549;29;20459;-51